sensor_id;sensor_type;location;lat;lon;timestamp;P1;durP1;ratioP1;P2;durP2;ratioP2
16640;SDS011;8434;47.990;7.880;2023-03-01T00:00:26;5.00;;;2.60;;
16640;SDS011;8434;47.990;7.880;2023-03-01T00:03:11;5.17;;;2.60;;
16640;SDS011;8434;47.990;7.880;2023-03-01T00:05:56;4.20;;;2.80;;
16640;SDS011;8434;47.990;7.880;2023-03-01T00:08:42;5.73;;;3.10;;
16640;SDS011;8434;47.990;7.880;2023-03-01T00:11:29;3.93;;;2.80;;
16640;SDS011;8434;47.990;7.880;2023-03-01T00:14:15;5.53;;;2.63;;
16640;SDS011;8434;47.990;7.880;2023-03-01T00:17:01;4.13;;;2.50;;
16640;SDS011;8434;47.990;7.880;2023-03-01T00:19:46;5.53;;;2.70;;
16640;SDS011;8434;47.990;7.880;2023-03-01T00:22:32;4.47;;;2.57;;
16640;SDS011;8434;47.990;7.880;2023-03-01T00:25:17;3.70;;;3.03;;
16640;SDS011;8434;47.990;7.880;2023-03-01T00:28:04;3.90;;;2.97;;
16640;SDS011;8434;47.990;7.880;2023-03-01T00:30:50;4.20;;;2.83;;
16640;SDS011;8434;47.990;7.880;2023-03-01T00:33:35;3.30;;;2.40;;
16640;SDS011;8434;47.990;7.880;2023-03-01T00:36:21;4.77;;;3.13;;
16640;SDS011;8434;47.990;7.880;2023-03-01T00:39:09;4.27;;;2.87;;
16640;SDS011;8434;47.990;7.880;2023-03-01T00:41:54;3.67;;;2.47;;
16640;SDS011;8434;47.990;7.880;2023-03-01T00:44:41;3.87;;;2.70;;
16640;SDS011;8434;47.990;7.880;2023-03-01T00:47:28;6.47;;;3.50;;
16640;SDS011;8434;47.990;7.880;2023-03-01T00:50:13;4.60;;;2.77;;
16640;SDS011;8434;47.990;7.880;2023-03-01T00:52:59;4.77;;;3.33;;
16640;SDS011;8434;47.990;7.880;2023-03-01T00:55:45;3.67;;;2.70;;
16640;SDS011;8434;47.990;7.880;2023-03-01T00:58:30;3.23;;;2.50;;
16640;SDS011;8434;47.990;7.880;2023-03-01T01:01:18;4.30;;;2.70;;
16640;SDS011;8434;47.990;7.880;2023-03-01T01:04:04;4.17;;;2.50;;
16640;SDS011;8434;47.990;7.880;2023-03-01T01:06:50;5.00;;;2.97;;
16640;SDS011;8434;47.990;7.880;2023-03-01T01:09:36;3.30;;;2.50;;
16640;SDS011;8434;47.990;7.880;2023-03-01T01:12:21;3.93;;;2.60;;
16640;SDS011;8434;47.990;7.880;2023-03-01T01:15:07;3.60;;;2.63;;
16640;SDS011;8434;47.990;7.880;2023-03-01T01:17:54;5.37;;;2.70;;
16640;SDS011;8434;47.990;7.880;2023-03-01T01:20:40;5.33;;;2.80;;
16640;SDS011;8434;47.990;7.880;2023-03-01T01:23:25;3.87;;;2.80;;
16640;SDS011;8434;47.990;7.880;2023-03-01T01:26:11;6.00;;;3.10;;
16640;SDS011;8434;47.990;7.880;2023-03-01T01:28:57;6.17;;;2.80;;
16640;SDS011;8434;47.990;7.880;2023-03-01T01:31:42;2.80;;;1.97;;
16640;SDS011;8434;47.990;7.880;2023-03-01T01:34:29;3.27;;;2.53;;
16640;SDS011;8434;47.990;7.880;2023-03-01T01:37:15;4.90;;;2.60;;
16640;SDS011;8434;47.990;7.880;2023-03-01T01:40:01;4.20;;;2.73;;
16640;SDS011;8434;47.990;7.880;2023-03-01T01:42:47;4.20;;;2.33;;
16640;SDS011;8434;47.990;7.880;2023-03-01T01:45:33;2.93;;;2.23;;
16640;SDS011;8434;47.990;7.880;2023-03-01T01:48:20;4.27;;;2.30;;
16640;SDS011;8434;47.990;7.880;2023-03-01T01:51:09;3.87;;;2.50;;
16640;SDS011;8434;47.990;7.880;2023-03-01T01:53:57;2.83;;;2.30;;
16640;SDS011;8434;47.990;7.880;2023-03-01T01:56:44;4.17;;;2.30;;
16640;SDS011;8434;47.990;7.880;2023-03-01T01:59:32;4.20;;;2.63;;
16640;SDS011;8434;47.990;7.880;2023-03-01T02:02:18;3.97;;;2.40;;
16640;SDS011;8434;47.990;7.880;2023-03-01T02:05:05;4.60;;;2.63;;
16640;SDS011;8434;47.990;7.880;2023-03-01T02:07:57;5.27;;;2.60;;
16640;SDS011;8434;47.990;7.880;2023-03-01T02:10:43;3.73;;;2.43;;
16640;SDS011;8434;47.990;7.880;2023-03-01T02:13:30;3.40;;;2.67;;
16640;SDS011;8434;47.990;7.880;2023-03-01T02:16:15;2.63;;;2.40;;
16640;SDS011;8434;47.990;7.880;2023-03-01T02:19:01;3.03;;;2.10;;
16640;SDS011;8434;47.990;7.880;2023-03-01T02:21:50;4.70;;;2.40;;
16640;SDS011;8434;47.990;7.880;2023-03-01T02:24:39;3.63;;;2.40;;
16640;SDS011;8434;47.990;7.880;2023-03-01T02:27:32;3.93;;;2.40;;
16640;SDS011;8434;47.990;7.880;2023-03-01T02:30:20;3.83;;;2.30;;
16640;SDS011;8434;47.990;7.880;2023-03-01T02:33:05;3.60;;;2.67;;
16640;SDS011;8434;47.990;7.880;2023-03-01T02:35:50;3.73;;;2.33;;
16640;SDS011;8434;47.990;7.880;2023-03-01T02:38:35;3.57;;;2.47;;
16640;SDS011;8434;47.990;7.880;2023-03-01T02:41:20;4.00;;;2.50;;
16640;SDS011;8434;47.990;7.880;2023-03-01T02:44:06;3.70;;;2.77;;
16640;SDS011;8434;47.990;7.880;2023-03-01T02:46:55;3.53;;;2.10;;
16640;SDS011;8434;47.990;7.880;2023-03-01T02:49:40;4.37;;;2.63;;
16640;SDS011;8434;47.990;7.880;2023-03-01T02:52:37;3.27;;;2.30;;
16640;SDS011;8434;47.990;7.880;2023-03-01T02:55:26;4.67;;;2.30;;
16640;SDS011;8434;47.990;7.880;2023-03-01T02:58:12;3.40;;;1.90;;
16640;SDS011;8434;47.990;7.880;2023-03-01T03:00:58;3.27;;;2.43;;
16640;SDS011;8434;47.990;7.880;2023-03-01T03:03:47;3.67;;;2.40;;
16640;SDS011;8434;47.990;7.880;2023-03-01T03:06:32;3.87;;;2.17;;
16640;SDS011;8434;47.990;7.880;2023-03-01T03:09:17;3.30;;;2.10;;
16640;SDS011;8434;47.990;7.880;2023-03-01T03:12:04;4.17;;;2.57;;
16640;SDS011;8434;47.990;7.880;2023-03-01T03:14:49;4.60;;;2.73;;
16640;SDS011;8434;47.990;7.880;2023-03-01T03:17:35;3.67;;;2.20;;
16640;SDS011;8434;47.990;7.880;2023-03-01T03:20:22;2.97;;;2.30;;
16640;SDS011;8434;47.990;7.880;2023-03-01T03:23:08;3.57;;;2.13;;
16640;SDS011;8434;47.990;7.880;2023-03-01T03:25:54;2.20;;;2.00;;
16640;SDS011;8434;47.990;7.880;2023-03-01T03:28:39;6.07;;;2.30;;
16640;SDS011;8434;47.990;7.880;2023-03-01T03:31:25;2.80;;;2.30;;
16640;SDS011;8434;47.990;7.880;2023-03-01T03:34:10;2.70;;;2.20;;
16640;SDS011;8434;47.990;7.880;2023-03-01T03:37:02;3.33;;;2.33;;
16640;SDS011;8434;47.990;7.880;2023-03-01T03:40:08;3.50;;;2.20;;
16640;SDS011;8434;47.990;7.880;2023-03-01T03:42:59;4.07;;;2.70;;
16640;SDS011;8434;47.990;7.880;2023-03-01T03:45:44;4.83;;;3.13;;
16640;SDS011;8434;47.990;7.880;2023-03-01T03:48:30;4.27;;;2.40;;
16640;SDS011;8434;47.990;7.880;2023-03-01T03:51:16;2.57;;;2.20;;
16640;SDS011;8434;47.990;7.880;2023-03-01T03:54:03;3.60;;;2.10;;
16640;SDS011;8434;47.990;7.880;2023-03-01T03:56:48;3.80;;;2.27;;
16640;SDS011;8434;47.990;7.880;2023-03-01T03:59:34;4.83;;;3.00;;
16640;SDS011;8434;47.990;7.880;2023-03-01T04:02:19;3.13;;;2.23;;
16640;SDS011;8434;47.990;7.880;2023-03-01T04:05:06;2.93;;;2.10;;
16640;SDS011;8434;47.990;7.880;2023-03-01T04:07:51;3.77;;;2.33;;
16640;SDS011;8434;47.990;7.880;2023-03-01T04:10:47;3.87;;;2.43;;
16640;SDS011;8434;47.990;7.880;2023-03-01T04:13:32;2.33;;;2.10;;
16640;SDS011;8434;47.990;7.880;2023-03-01T04:16:18;5.93;;;2.10;;
16640;SDS011;8434;47.990;7.880;2023-03-01T04:19:05;3.37;;;2.50;;
16640;SDS011;8434;47.990;7.880;2023-03-01T04:21:50;2.27;;;2.03;;
16640;SDS011;8434;47.990;7.880;2023-03-01T04:24:36;4.17;;;2.17;;
16640;SDS011;8434;47.990;7.880;2023-03-01T04:27:23;3.03;;;2.03;;
16640;SDS011;8434;47.990;7.880;2023-03-01T04:30:10;4.37;;;2.20;;
16640;SDS011;8434;47.990;7.880;2023-03-01T04:32:56;3.90;;;2.40;;
16640;SDS011;8434;47.990;7.880;2023-03-01T04:35:41;3.40;;;2.37;;
16640;SDS011;8434;47.990;7.880;2023-03-01T04:38:27;3.50;;;2.17;;
16640;SDS011;8434;47.990;7.880;2023-03-01T04:41:12;4.47;;;2.20;;
16640;SDS011;8434;47.990;7.880;2023-03-01T04:43:59;2.10;;;1.90;;
16640;SDS011;8434;47.990;7.880;2023-03-01T04:46:44;4.03;;;2.23;;
16640;SDS011;8434;47.990;7.880;2023-03-01T04:49:30;2.33;;;2.00;;
16640;SDS011;8434;47.990;7.880;2023-03-01T04:52:15;3.50;;;1.97;;
16640;SDS011;8434;47.990;7.880;2023-03-01T04:55:01;3.33;;;2.10;;
16640;SDS011;8434;47.990;7.880;2023-03-01T04:57:47;3.60;;;1.97;;
16640;SDS011;8434;47.990;7.880;2023-03-01T05:00:34;4.67;;;2.50;;
16640;SDS011;8434;47.990;7.880;2023-03-01T05:03:19;2.27;;;1.97;;
16640;SDS011;8434;47.990;7.880;2023-03-01T05:06:05;3.73;;;2.60;;
16640;SDS011;8434;47.990;7.880;2023-03-01T05:08:50;5.97;;;3.17;;
16640;SDS011;8434;47.990;7.880;2023-03-01T05:11:36;3.17;;;2.60;;
16640;SDS011;8434;47.990;7.880;2023-03-01T05:14:21;3.60;;;2.60;;
16640;SDS011;8434;47.990;7.880;2023-03-01T05:17:08;2.77;;;2.57;;
16640;SDS011;8434;47.990;7.880;2023-03-01T05:19:54;6.30;;;3.70;;
16640;SDS011;8434;47.990;7.880;2023-03-01T05:22:39;10.53;;;3.97;;
16640;SDS011;8434;47.990;7.880;2023-03-01T05:25:25;9.33;;;3.40;;
16640;SDS011;8434;47.990;7.880;2023-03-01T05:28:11;12.10;;;4.47;;
16640;SDS011;8434;47.990;7.880;2023-03-01T05:30:56;9.20;;;4.30;;
16640;SDS011;8434;47.990;7.880;2023-03-01T05:33:43;16.73;;;5.93;;
16640;SDS011;8434;47.990;7.880;2023-03-01T05:36:29;22.60;;;6.63;;
16640;SDS011;8434;47.990;7.880;2023-03-01T05:39:14;17.10;;;6.00;;
16640;SDS011;8434;47.990;7.880;2023-03-01T05:42:00;18.37;;;6.27;;
16640;SDS011;8434;47.990;7.880;2023-03-01T05:44:46;22.40;;;7.23;;
16640;SDS011;8434;47.990;7.880;2023-03-01T05:47:33;21.53;;;7.30;;
16640;SDS011;8434;47.990;7.880;2023-03-01T05:50:21;16.10;;;12.40;;
16640;SDS011;8434;47.990;7.880;2023-03-01T05:53:08;17.57;;;11.53;;
16640;SDS011;8434;47.990;7.880;2023-03-01T05:55:54;16.07;;;9.60;;
16640;SDS011;8434;47.990;7.880;2023-03-01T05:58:39;18.17;;;8.97;;
16640;SDS011;8434;47.990;7.880;2023-03-01T06:01:25;14.40;;;11.40;;
16640;SDS011;8434;47.990;7.880;2023-03-01T06:04:10;14.77;;;10.07;;
16640;SDS011;8434;47.990;7.880;2023-03-01T06:06:57;15.13;;;11.47;;
16640;SDS011;8434;47.990;7.880;2023-03-01T06:09:43;16.67;;;11.83;;
16640;SDS011;8434;47.990;7.880;2023-03-01T06:12:30;18.30;;;12.03;;
16640;SDS011;8434;47.990;7.880;2023-03-01T06:15:15;14.90;;;8.90;;
16640;SDS011;8434;47.990;7.880;2023-03-01T06:18:01;13.57;;;8.03;;
16640;SDS011;8434;47.990;7.880;2023-03-01T06:20:52;13.00;;;8.60;;
16640;SDS011;8434;47.990;7.880;2023-03-01T06:23:39;12.07;;;8.17;;
16640;SDS011;8434;47.990;7.880;2023-03-01T06:26:24;12.17;;;7.80;;
16640;SDS011;8434;47.990;7.880;2023-03-01T06:29:09;9.83;;;7.17;;
16640;SDS011;8434;47.990;7.880;2023-03-01T06:31:55;8.30;;;6.77;;
16640;SDS011;8434;47.990;7.880;2023-03-01T06:34:40;10.27;;;6.30;;
16640;SDS011;8434;47.990;7.880;2023-03-01T06:37:26;8.40;;;6.17;;
16640;SDS011;8434;47.990;7.880;2023-03-01T06:40:13;9.07;;;6.50;;
16640;SDS011;8434;47.990;7.880;2023-03-01T06:42:58;10.87;;;6.47;;
16640;SDS011;8434;47.990;7.880;2023-03-01T06:45:44;8.67;;;6.03;;
16640;SDS011;8434;47.990;7.880;2023-03-01T06:48:30;8.60;;;6.33;;
16640;SDS011;8434;47.990;7.880;2023-03-01T06:51:15;8.37;;;5.67;;
16640;SDS011;8434;47.990;7.880;2023-03-01T06:54:01;7.37;;;5.37;;
16640;SDS011;8434;47.990;7.880;2023-03-01T06:56:48;6.80;;;5.30;;
16640;SDS011;8434;47.990;7.880;2023-03-01T06:59:33;7.00;;;5.33;;
16640;SDS011;8434;47.990;7.880;2023-03-01T07:02:19;6.00;;;4.97;;
16640;SDS011;8434;47.990;7.880;2023-03-01T07:05:04;7.27;;;5.17;;
16640;SDS011;8434;47.990;7.880;2023-03-01T07:07:50;10.07;;;5.17;;
16640;SDS011;8434;47.990;7.880;2023-03-01T07:10:35;5.73;;;4.70;;
16640;SDS011;8434;47.990;7.880;2023-03-01T07:13:22;8.80;;;4.90;;
16640;SDS011;8434;47.990;7.880;2023-03-01T07:16:08;7.53;;;4.80;;
16640;SDS011;8434;47.990;7.880;2023-03-01T07:18:53;6.57;;;4.73;;
16640;SDS011;8434;47.990;7.880;2023-03-01T07:21:39;5.57;;;4.60;;
16640;SDS011;8434;47.990;7.880;2023-03-01T07:24:24;5.97;;;4.80;;
16640;SDS011;8434;47.990;7.880;2023-03-01T07:27:10;5.40;;;4.37;;
16640;SDS011;8434;47.990;7.880;2023-03-01T07:29:56;5.40;;;4.77;;
16640;SDS011;8434;47.990;7.880;2023-03-01T07:32:42;5.70;;;4.50;;
16640;SDS011;8434;47.990;7.880;2023-03-01T07:35:27;7.77;;;4.67;;
16640;SDS011;8434;47.990;7.880;2023-03-01T07:38:13;5.80;;;4.73;;
16640;SDS011;8434;47.990;7.880;2023-03-01T07:40:59;6.37;;;4.87;;
16640;SDS011;8434;47.990;7.880;2023-03-01T07:43:44;6.73;;;4.73;;
16640;SDS011;8434;47.990;7.880;2023-03-01T07:46:32;6.07;;;4.10;;
16640;SDS011;8434;47.990;7.880;2023-03-01T07:49:17;6.20;;;4.90;;
16640;SDS011;8434;47.990;7.880;2023-03-01T07:52:03;5.40;;;4.30;;
16640;SDS011;8434;47.990;7.880;2023-03-01T07:54:48;6.77;;;4.37;;
16640;SDS011;8434;47.990;7.880;2023-03-01T07:57:33;4.70;;;4.27;;
16640;SDS011;8434;47.990;7.880;2023-03-01T08:00:19;5.67;;;4.23;;
16640;SDS011;8434;47.990;7.880;2023-03-01T08:03:06;5.27;;;4.40;;
16640;SDS011;8434;47.990;7.880;2023-03-01T08:05:51;6.47;;;4.30;;
16640;SDS011;8434;47.990;7.880;2023-03-01T08:08:37;4.43;;;3.90;;
16640;SDS011;8434;47.990;7.880;2023-03-01T08:11:22;5.83;;;4.07;;
16640;SDS011;8434;47.990;7.880;2023-03-01T08:14:08;5.30;;;4.53;;
16640;SDS011;8434;47.990;7.880;2023-03-01T08:16:54;4.70;;;3.77;;
16640;SDS011;8434;47.990;7.880;2023-03-01T08:19:42;5.53;;;4.10;;
16640;SDS011;8434;47.990;7.880;2023-03-01T08:22:29;6.63;;;3.97;;
16640;SDS011;8434;47.990;7.880;2023-03-01T08:25:14;7.03;;;4.10;;
16640;SDS011;8434;47.990;7.880;2023-03-01T08:28:00;11.77;;;4.80;;
16640;SDS011;8434;47.990;7.880;2023-03-01T08:30:45;5.10;;;3.87;;
16640;SDS011;8434;47.990;7.880;2023-03-01T08:33:31;5.03;;;3.80;;
16640;SDS011;8434;47.990;7.880;2023-03-01T08:36:18;5.03;;;3.93;;
16640;SDS011;8434;47.990;7.880;2023-03-01T08:39:04;4.93;;;4.07;;
16640;SDS011;8434;47.990;7.880;2023-03-01T08:41:50;3.60;;;3.30;;
16640;SDS011;8434;47.990;7.880;2023-03-01T08:44:35;5.30;;;4.00;;
16640;SDS011;8434;47.990;7.880;2023-03-01T08:47:22;4.67;;;3.87;;
16640;SDS011;8434;47.990;7.880;2023-03-01T08:50:08;5.30;;;4.13;;
16640;SDS011;8434;47.990;7.880;2023-03-01T08:52:55;5.53;;;4.30;;
16640;SDS011;8434;47.990;7.880;2023-03-01T08:55:41;5.27;;;4.00;;
16640;SDS011;8434;47.990;7.880;2023-03-01T08:58:26;5.10;;;3.87;;
16640;SDS011;8434;47.990;7.880;2023-03-01T09:01:12;6.53;;;4.00;;
16640;SDS011;8434;47.990;7.880;2023-03-01T09:03:58;4.93;;;3.67;;
16640;SDS011;8434;47.990;7.880;2023-03-01T09:06:44;4.73;;;4.20;;
16640;SDS011;8434;47.990;7.880;2023-03-01T09:09:31;5.83;;;3.97;;
16640;SDS011;8434;47.990;7.880;2023-03-01T09:12:16;4.10;;;3.70;;
16640;SDS011;8434;47.990;7.880;2023-03-01T09:15:02;4.33;;;3.93;;
16640;SDS011;8434;47.990;7.880;2023-03-01T09:17:48;5.87;;;3.77;;
16640;SDS011;8434;47.990;7.880;2023-03-01T09:20:33;4.30;;;3.90;;
16640;SDS011;8434;47.990;7.880;2023-03-01T09:23:18;4.37;;;3.67;;
16640;SDS011;8434;47.990;7.880;2023-03-01T09:26:05;4.57;;;3.70;;
16640;SDS011;8434;47.990;7.880;2023-03-01T09:28:53;5.13;;;3.90;;
16640;SDS011;8434;47.990;7.880;2023-03-01T09:31:38;6.43;;;4.17;;
16640;SDS011;8434;47.990;7.880;2023-03-01T09:34:24;5.43;;;3.57;;
16640;SDS011;8434;47.990;7.880;2023-03-01T09:37:09;4.07;;;3.67;;
16640;SDS011;8434;47.990;7.880;2023-03-01T09:39:55;4.23;;;3.83;;
16640;SDS011;8434;47.990;7.880;2023-03-01T09:42:46;5.10;;;3.77;;
16640;SDS011;8434;47.990;7.880;2023-03-01T09:45:34;4.07;;;3.67;;
16640;SDS011;8434;47.990;7.880;2023-03-01T09:48:21;4.20;;;3.80;;
16640;SDS011;8434;47.990;7.880;2023-03-01T09:51:09;5.67;;;4.27;;
16640;SDS011;8434;47.990;7.880;2023-03-01T09:53:57;5.03;;;3.40;;
16640;SDS011;8434;47.990;7.880;2023-03-01T09:56:46;4.30;;;3.30;;
16640;SDS011;8434;47.990;7.880;2023-03-01T09:59:36;4.27;;;3.40;;
16640;SDS011;8434;47.990;7.880;2023-03-01T10:02:27;3.70;;;3.40;;
16640;SDS011;8434;47.990;7.880;2023-03-01T10:05:21;3.73;;;3.43;;
16640;SDS011;8434;47.990;7.880;2023-03-01T10:08:19;4.80;;;3.40;;
16640;SDS011;8434;47.990;7.880;2023-03-01T10:11:19;4.67;;;3.53;;
16640;SDS011;8434;47.990;7.880;2023-03-01T10:14:05;4.17;;;3.77;;
16640;SDS011;8434;47.990;7.880;2023-03-01T10:16:54;4.30;;;3.77;;
16640;SDS011;8434;47.990;7.880;2023-03-01T10:19:42;4.17;;;3.77;;
16640;SDS011;8434;47.990;7.880;2023-03-01T10:22:28;3.93;;;3.53;;
16640;SDS011;8434;47.990;7.880;2023-03-01T10:25:15;4.03;;;3.60;;
16640;SDS011;8434;47.990;7.880;2023-03-01T10:28:01;4.03;;;3.50;;
16640;SDS011;8434;47.990;7.880;2023-03-01T10:30:47;4.63;;;4.20;;
16640;SDS011;8434;47.990;7.880;2023-03-01T10:33:35;5.13;;;3.70;;
16640;SDS011;8434;47.990;7.880;2023-03-01T10:36:23;4.90;;;3.23;;
16640;SDS011;8434;47.990;7.880;2023-03-01T10:39:13;4.30;;;3.20;;
16640;SDS011;8434;47.990;7.880;2023-03-01T10:42:00;3.77;;;3.47;;
16640;SDS011;8434;47.990;7.880;2023-03-01T10:44:46;4.90;;;3.53;;
16640;SDS011;8434;47.990;7.880;2023-03-01T10:47:31;3.97;;;3.57;;
16640;SDS011;8434;47.990;7.880;2023-03-01T10:50:20;3.57;;;3.10;;
16640;SDS011;8434;47.990;7.880;2023-03-01T10:53:16;3.63;;;3.27;;
16640;SDS011;8434;47.990;7.880;2023-03-01T10:56:05;3.87;;;3.33;;
16640;SDS011;8434;47.990;7.880;2023-03-01T10:58:56;5.57;;;3.40;;
16640;SDS011;8434;47.990;7.880;2023-03-01T11:01:42;3.87;;;3.30;;
16640;SDS011;8434;47.990;7.880;2023-03-01T11:04:27;5.03;;;3.60;;
16640;SDS011;8434;47.990;7.880;2023-03-01T11:07:14;3.30;;;3.00;;
16640;SDS011;8434;47.990;7.880;2023-03-01T11:10:03;6.00;;;3.23;;
16640;SDS011;8434;47.990;7.880;2023-03-01T11:13:07;5.07;;;3.53;;
16640;SDS011;8434;47.990;7.880;2023-03-01T11:15:58;4.07;;;3.60;;
16640;SDS011;8434;47.990;7.880;2023-03-01T11:18:44;3.97;;;3.23;;
16640;SDS011;8434;47.990;7.880;2023-03-01T11:21:41;4.17;;;3.30;;
16640;SDS011;8434;47.990;7.880;2023-03-01T11:24:36;3.50;;;3.20;;
16640;SDS011;8434;47.990;7.880;2023-03-01T11:27:25;3.60;;;3.30;;
16640;SDS011;8434;47.990;7.880;2023-03-01T11:30:13;3.93;;;3.27;;
16640;SDS011;8434;47.990;7.880;2023-03-01T11:33:05;3.57;;;3.27;;
16640;SDS011;8434;47.990;7.880;2023-03-01T11:35:55;4.30;;;3.67;;
16640;SDS011;8434;47.990;7.880;2023-03-01T11:38:42;4.03;;;3.30;;
16640;SDS011;8434;47.990;7.880;2023-03-01T11:41:30;3.80;;;3.37;;
16640;SDS011;8434;47.990;7.880;2023-03-01T11:44:16;3.73;;;3.23;;
16640;SDS011;8434;47.990;7.880;2023-03-01T11:47:18;3.43;;;3.13;;
16640;SDS011;8434;47.990;7.880;2023-03-01T11:50:10;4.03;;;3.23;;
16640;SDS011;8434;47.990;7.880;2023-03-01T11:53:12;3.77;;;3.40;;
16640;SDS011;8434;47.990;7.880;2023-03-01T11:56:03;4.53;;;3.83;;
16640;SDS011;8434;47.990;7.880;2023-03-01T11:58:56;4.03;;;3.67;;
16640;SDS011;8434;47.990;7.880;2023-03-01T12:01:48;3.60;;;3.27;;
16640;SDS011;8434;47.990;7.880;2023-03-01T12:04:45;3.77;;;3.23;;
16640;SDS011;8434;47.990;7.880;2023-03-01T12:07:37;4.77;;;3.13;;
16640;SDS011;8434;47.990;7.880;2023-03-01T12:10:25;3.63;;;3.13;;
16640;SDS011;8434;47.990;7.880;2023-03-01T12:13:18;3.77;;;3.10;;
16640;SDS011;8434;47.990;7.880;2023-03-01T12:16:24;3.40;;;3.10;;
16640;SDS011;8434;47.990;7.880;2023-03-01T12:19:15;4.20;;;3.20;;
16640;SDS011;8434;47.990;7.880;2023-03-01T12:22:17;4.17;;;3.77;;
16640;SDS011;8434;47.990;7.880;2023-03-01T12:25:13;5.43;;;3.40;;
16640;SDS011;8434;47.990;7.880;2023-03-01T12:28:07;4.17;;;3.27;;
16640;SDS011;8434;47.990;7.880;2023-03-01T12:31:03;3.77;;;3.10;;
16640;SDS011;8434;47.990;7.880;2023-03-01T12:33:52;3.47;;;3.07;;
16640;SDS011;8434;47.990;7.880;2023-03-01T12:36:42;3.80;;;3.40;;
16640;SDS011;8434;47.990;7.880;2023-03-01T12:39:33;4.37;;;3.30;;
16640;SDS011;8434;47.990;7.880;2023-03-01T12:42:26;3.40;;;3.10;;
16640;SDS011;8434;47.990;7.880;2023-03-01T12:45:26;3.47;;;3.03;;
16640;SDS011;8434;47.990;7.880;2023-03-01T12:48:18;3.60;;;3.30;;
16640;SDS011;8434;47.990;7.880;2023-03-01T12:51:08;3.10;;;2.80;;
16640;SDS011;8434;47.990;7.880;2023-03-01T12:53:55;3.60;;;3.10;;
16640;SDS011;8434;47.990;7.880;2023-03-01T12:56:42;3.63;;;3.27;;
16640;SDS011;8434;47.990;7.880;2023-03-01T12:59:30;5.13;;;3.10;;
16640;SDS011;8434;47.990;7.880;2023-03-01T13:02:20;3.37;;;3.00;;
16640;SDS011;8434;47.990;7.880;2023-03-01T13:05:14;3.23;;;2.93;;
16640;SDS011;8434;47.990;7.880;2023-03-01T13:08:05;3.30;;;3.00;;
16640;SDS011;8434;47.990;7.880;2023-03-01T13:10:53;4.33;;;3.07;;
16640;SDS011;8434;47.990;7.880;2023-03-01T13:13:41;3.40;;;3.10;;
16640;SDS011;8434;47.990;7.880;2023-03-01T13:19:32;4.37;;;3.17;;
16640;SDS011;8434;47.990;7.880;2023-03-01T13:22:26;3.93;;;3.53;;
16640;SDS011;8434;47.990;7.880;2023-03-01T13:25:15;4.13;;;3.20;;
16640;SDS011;8434;47.990;7.880;2023-03-01T13:31:10;4.87;;;3.73;;
16640;SDS011;8434;47.990;7.880;2023-03-01T13:33:56;3.93;;;3.53;;
16640;SDS011;8434;47.990;7.880;2023-03-01T13:36:46;3.07;;;2.77;;
16640;SDS011;8434;47.990;7.880;2023-03-01T13:39:38;3.47;;;3.17;;
16640;SDS011;8434;47.990;7.880;2023-03-01T13:42:31;4.17;;;3.23;;
16640;SDS011;8434;47.990;7.880;2023-03-01T13:45:21;3.30;;;3.00;;
16640;SDS011;8434;47.990;7.880;2023-03-01T13:48:09;4.63;;;3.50;;
16640;SDS011;8434;47.990;7.880;2023-03-01T13:50:55;4.93;;;3.63;;
16640;SDS011;8434;47.990;7.880;2023-03-01T13:53:43;3.67;;;3.20;;
16640;SDS011;8434;47.990;7.880;2023-03-01T13:56:33;3.43;;;3.13;;
16640;SDS011;8434;47.990;7.880;2023-03-01T13:59:22;3.47;;;3.17;;
16640;SDS011;8434;47.990;7.880;2023-03-01T14:02:11;3.33;;;3.03;;
16640;SDS011;8434;47.990;7.880;2023-03-01T14:04:57;3.40;;;3.10;;
16640;SDS011;8434;47.990;7.880;2023-03-01T14:07:42;3.57;;;3.20;;
16640;SDS011;8434;47.990;7.880;2023-03-01T14:10:29;3.20;;;2.90;;
16640;SDS011;8434;47.990;7.880;2023-03-01T14:13:20;2.90;;;2.60;;
16640;SDS011;8434;47.990;7.880;2023-03-01T14:16:14;3.13;;;2.80;;
16640;SDS011;8434;47.990;7.880;2023-03-01T14:19:12;2.93;;;2.60;;
16640;SDS011;8434;47.990;7.880;2023-03-01T14:22:02;3.87;;;2.93;;
16640;SDS011;8434;47.990;7.880;2023-03-01T14:24:49;3.20;;;2.90;;
16640;SDS011;8434;47.990;7.880;2023-03-01T14:27:36;4.07;;;2.83;;
16640;SDS011;8434;47.990;7.880;2023-03-01T14:30:24;3.87;;;3.47;;
16640;SDS011;8434;47.990;7.880;2023-03-01T14:33:19;2.83;;;2.53;;
16640;SDS011;8434;47.990;7.880;2023-03-01T14:36:05;4.03;;;3.03;;
16640;SDS011;8434;47.990;7.880;2023-03-01T14:38:51;3.33;;;3.00;;
16640;SDS011;8434;47.990;7.880;2023-03-01T14:41:36;5.03;;;4.40;;
16640;SDS011;8434;47.990;7.880;2023-03-01T14:44:22;3.53;;;3.23;;
16640;SDS011;8434;47.990;7.880;2023-03-01T14:47:10;5.60;;;3.43;;
16640;SDS011;8434;47.990;7.880;2023-03-01T14:49:59;3.37;;;3.07;;
16640;SDS011;8434;47.990;7.880;2023-03-01T14:52:49;3.80;;;3.47;;
16640;SDS011;8434;47.990;7.880;2023-03-01T14:55:35;3.90;;;3.17;;
16640;SDS011;8434;47.990;7.880;2023-03-01T14:58:22;5.10;;;3.27;;
16640;SDS011;8434;47.990;7.880;2023-03-01T15:01:10;3.57;;;3.20;;
16640;SDS011;8434;47.990;7.880;2023-03-01T15:03:58;4.07;;;3.23;;
16640;SDS011;8434;47.990;7.880;2023-03-01T15:06:46;4.10;;;3.70;;
16640;SDS011;8434;47.990;7.880;2023-03-01T15:09:33;3.40;;;3.10;;
16640;SDS011;8434;47.990;7.880;2023-03-01T15:12:35;5.10;;;3.07;;
16640;SDS011;8434;47.990;7.880;2023-03-01T15:15:26;4.63;;;3.57;;
16640;SDS011;8434;47.990;7.880;2023-03-01T15:18:16;3.93;;;3.60;;
16640;SDS011;8434;47.990;7.880;2023-03-01T15:21:06;4.30;;;3.73;;
16640;SDS011;8434;47.990;7.880;2023-03-01T15:23:54;4.77;;;4.03;;
16640;SDS011;8434;47.990;7.880;2023-03-01T15:26:41;4.73;;;3.73;;
16640;SDS011;8434;47.990;7.880;2023-03-01T15:29:27;4.17;;;3.57;;
16640;SDS011;8434;47.990;7.880;2023-03-01T15:32:23;5.10;;;3.90;;
16640;SDS011;8434;47.990;7.880;2023-03-01T15:38:32;5.93;;;3.73;;
16640;SDS011;8434;47.990;7.880;2023-03-01T15:41:23;4.70;;;3.83;;
16640;SDS011;8434;47.990;7.880;2023-03-01T15:44:16;6.70;;;4.10;;
16640;SDS011;8434;47.990;7.880;2023-03-01T15:47:01;5.70;;;3.87;;
16640;SDS011;8434;47.990;7.880;2023-03-01T15:49:48;4.23;;;3.33;;
16640;SDS011;8434;47.990;7.880;2023-03-01T15:52:40;4.83;;;3.70;;
16640;SDS011;8434;47.990;7.880;2023-03-01T15:55:27;6.60;;;3.80;;
16640;SDS011;8434;47.990;7.880;2023-03-01T15:58:15;5.13;;;3.70;;
16640;SDS011;8434;47.990;7.880;2023-03-01T16:01:02;4.23;;;3.73;;
16640;SDS011;8434;47.990;7.880;2023-03-01T16:03:47;4.93;;;3.40;;
16640;SDS011;8434;47.990;7.880;2023-03-01T16:06:33;3.83;;;3.43;;
16640;SDS011;8434;47.990;7.880;2023-03-01T16:09:20;5.43;;;3.30;;
16640;SDS011;8434;47.990;7.880;2023-03-01T16:12:08;3.83;;;3.40;;
16640;SDS011;8434;47.990;7.880;2023-03-01T16:14:56;5.10;;;3.70;;
16640;SDS011;8434;47.990;7.880;2023-03-01T16:17:42;4.93;;;3.20;;
16640;SDS011;8434;47.990;7.880;2023-03-01T16:20:27;4.87;;;3.53;;
16640;SDS011;8434;47.990;7.880;2023-03-01T16:23:13;3.67;;;3.30;;
16640;SDS011;8434;47.990;7.880;2023-03-01T16:25:59;3.70;;;3.40;;
16640;SDS011;8434;47.990;7.880;2023-03-01T16:28:44;5.37;;;3.57;;
16640;SDS011;8434;47.990;7.880;2023-03-01T16:31:32;4.23;;;3.50;;
16640;SDS011;8434;47.990;7.880;2023-03-01T16:34:17;3.77;;;3.37;;
16640;SDS011;8434;47.990;7.880;2023-03-01T16:37:05;5.13;;;3.40;;
16640;SDS011;8434;47.990;7.880;2023-03-01T16:39:51;4.10;;;3.70;;
16640;SDS011;8434;47.990;7.880;2023-03-01T16:42:37;3.63;;;3.33;;
16640;SDS011;8434;47.990;7.880;2023-03-01T16:45:25;3.97;;;2.90;;
16640;SDS011;8434;47.990;7.880;2023-03-01T16:48:12;3.60;;;3.30;;
16640;SDS011;8434;47.990;7.880;2023-03-01T16:50:58;4.40;;;3.40;;
16640;SDS011;8434;47.990;7.880;2023-03-01T16:53:44;3.40;;;3.10;;
16640;SDS011;8434;47.990;7.880;2023-03-01T16:56:30;3.97;;;3.23;;
16640;SDS011;8434;47.990;7.880;2023-03-01T16:59:18;4.00;;;3.00;;
16640;SDS011;8434;47.990;7.880;2023-03-01T17:02:03;3.77;;;3.40;;
16640;SDS011;8434;47.990;7.880;2023-03-01T17:04:52;4.60;;;3.40;;
16640;SDS011;8434;47.990;7.880;2023-03-01T17:07:38;3.57;;;3.20;;
16640;SDS011;8434;47.990;7.880;2023-03-01T17:10:23;5.43;;;3.30;;
16640;SDS011;8434;47.990;7.880;2023-03-01T17:13:09;4.00;;;3.03;;